createdAt,value
2018-08-10T00:00:40.129Z,77.99
2018-08-10T00:01:50.207Z,77.99
2018-08-10T00:03:00.315Z,78.09
2018-08-10T00:04:10.137Z,77.99
2018-08-10T00:05:20.275Z,78.19
2018-08-10T00:06:30.106Z,78.19
2018-08-10T00:07:40.189Z,78.28
2018-08-10T00:08:50.333Z,78.05
2018-08-10T00:10:00.616Z,77.89
2018-08-10T00:11:10.750Z,77.99
2018-08-10T00:12:20.591Z,78.09
2018-08-10T00:13:30.691Z,78.19
2018-08-10T00:14:40.780Z,77.99
2018-08-10T00:15:50.611Z,77.99
2018-08-10T00:17:00.772Z,77.99
2018-08-10T00:18:10.864Z,77.95
2018-08-10T00:19:20.961Z,78.28
2018-08-10T00:20:30.788Z,78.44
2018-08-10T00:21:40.631Z,78.53
2018-08-10T00:22:50.717Z,78.53
2018-08-10T00:24:00.837Z,78.48
2018-08-10T00:25:10.934Z,78.53
2018-08-10T00:26:20.751Z,78.34
2018-08-10T00:27:30.860Z,78.53
2018-08-10T00:28:40.736Z,78.15
2018-08-10T00:29:50.834Z,78.53
2018-08-10T00:31:00.903Z,78.53
2018-08-10T00:32:11.005Z,78.34
2018-08-10T00:33:20.560Z,78.25
2018-08-10T00:34:30.376Z,77.76
2018-08-10T00:35:40.446Z,77.76
2018-08-10T00:36:50.543Z,77.86
2018-08-10T00:38:00.634Z,78.05
2018-08-10T00:39:10.473Z,77.76
2018-08-10T00:40:20.294Z,78.05
2018-08-10T00:41:30.369Z,78.28
2018-08-10T00:42:40.461Z,78.25
2018-08-10T00:43:50.013Z,77.89
2018-08-10T00:45:00.095Z,78.25
2018-08-10T00:46:10.192Z,78.34
2018-08-10T00:47:20.011Z,78.44
2018-08-10T00:48:30.078Z,78.44
2018-08-10T00:49:40.181Z,78.34
2018-08-10T00:50:49.732Z,78.63
2018-08-10T00:51:59.812Z,78.25
2018-08-10T00:53:09.900Z,78.53
2018-08-10T00:54:19.968Z,78.53
2018-08-10T00:55:30.061Z,78.34
2018-08-10T00:56:40.142Z,78.34
2018-08-10T00:57:50.214Z,78.15
2018-08-10T00:59:00.272Z,78.63
2018-08-10T01:00:10.365Z,78.34
2018-08-10T01:01:20.454Z,78.25
2018-08-10T01:02:30.528Z,78.15
2018-08-10T01:03:40.613Z,78.05
2018-08-10T01:04:50.688Z,78.34
2018-08-10T01:06:00.775Z,78.4
2018-08-10T01:07:10.859Z,78.4
2018-08-10T01:08:20.928Z,78.4
2018-08-10T01:09:30.747Z,78.3
2018-08-10T01:10:40.835Z,78.2
2018-08-10T01:11:50.918Z,78.2
2018-08-10T01:13:00.983Z,78.2
2018-08-10T01:14:11.159Z,78.5
2018-08-10T01:15:21.237Z,78.2
2018-08-10T01:16:31.336Z,78.5
2018-08-10T01:17:41.156Z,78.69
2018-08-10T01:18:50.989Z,78.46
2018-08-10T01:20:01.144Z,78.17
2018-08-10T01:21:11.247Z,78.36
2018-08-10T01:22:21.327Z,78.56
2018-08-10T01:23:31.413Z,78.36
2018-08-10T01:24:41.217Z,78.17
2018-08-10T01:25:51.310Z,78.46
2018-08-10T01:27:01.382Z,78.36
2018-08-10T01:28:11.487Z,78.36
2018-08-10T01:29:21.697Z,78.36
2018-08-10T01:30:31.505Z,78.17
2018-08-10T01:31:41.570Z,78.66
2018-08-10T01:32:51.695Z,78.27
2018-08-10T01:34:01.790Z,78.23
2018-08-10T01:35:11.889Z,78.52
2018-08-10T01:36:21.694Z,78.36
2018-08-10T01:37:31.758Z,78.23
2018-08-10T01:38:41.823Z,78.52
2018-08-10T01:39:51.901Z,78.52
2018-08-10T01:41:01.980Z,78.52
2018-08-10T01:42:12.070Z,78.33
2018-08-10T01:43:22.149Z,78.52
2018-08-10T01:44:31.755Z,78.71
2018-08-10T01:45:41.576Z,78.23
2018-08-10T01:46:51.645Z,78.23
2018-08-10T01:48:01.738Z,78.13
2018-08-10T01:49:11.823Z,78.13
2018-08-10T01:50:21.621Z,78.09
2018-08-10T01:51:31.694Z,78.48
2018-08-10T01:52:41.765Z,78.28
2018-08-10T01:53:51.860Z,78.48
2018-08-10T01:55:01.930Z,78.28
2018-08-10T01:56:12.014Z,78.48
2018-08-10T01:57:22.106Z,78.09
2018-08-10T01:58:31.923Z,78.09
2018-08-10T01:59:41.996Z,78.09
2018-08-10T02:00:51.810Z,78.38
2018-08-10T02:02:01.885Z,78.28
2018-08-10T02:03:11.960Z,78.48
2018-08-10T02:04:21.773Z,78.19
2018-08-10T02:05:31.873Z,78.09
2018-08-10T02:06:41.685Z,78.25
2018-08-10T02:07:51.517Z,77.8
2018-08-10T02:09:01.608Z,78.25
2018-08-10T02:10:11.692Z,78.15
2018-08-10T02:11:21.776Z,78.15
2018-08-10T02:12:31.864Z,78.05
2018-08-10T02:13:42.028Z,77.95
2018-08-10T02:14:52.095Z,77.67
2018-08-10T02:16:02.188Z,77.86
2018-08-10T02:17:12.002Z,77.95
2018-08-10T02:18:21.816Z,77.95
2018-08-10T02:19:31.381Z,77.95
2018-08-10T02:20:41.468Z,78.05
2018-08-10T02:21:51.521Z,77.95
2018-08-10T02:23:01.607Z,77.95
2018-08-10T02:24:11.434Z,78.31
2018-08-10T02:25:21.582Z,78.31
2018-08-10T02:26:31.662Z,78.15
2018-08-10T02:27:41.740Z,78.02
2018-08-10T02:28:51.820Z,77.82
2018-08-10T02:30:01.908Z,78.02
2018-08-10T02:31:11.997Z,78.02
2018-08-10T02:32:22.119Z,78.02
2018-08-10T02:33:32.205Z,78.11
2018-08-10T02:34:42.305Z,77.92
2018-08-10T02:35:52.397Z,78.02
2018-08-10T02:37:02.479Z,78.11
2018-08-10T02:38:12.556Z,78.11
2018-08-10T02:39:22.174Z,77.92
2018-08-10T02:40:31.976Z,78.31
2018-08-10T02:41:41.568Z,78.21
2018-08-10T02:42:51.664Z,77.92
2018-08-10T02:44:01.747Z,77.82
2018-08-10T02:45:11.575Z,78.11
2018-08-10T02:46:21.659Z,77.62
2018-08-10T02:47:31.731Z,78.11
2018-08-10T02:48:41.882Z,77.92
2018-08-10T02:49:51.980Z,77.92
2018-08-10T02:51:02.066Z,77.92
2018-08-10T02:52:12.144Z,77.92
2018-08-10T02:53:22.224Z,77.82
2018-08-10T02:54:32.036Z,77.92
2018-08-10T02:55:42.131Z,77.92
2018-08-10T02:56:52.211Z,77.82
2018-08-10T02:58:02.036Z,77.92
2018-08-10T02:59:12.112Z,78.02
2018-08-10T03:00:22.185Z,77.92
2018-08-10T03:01:32.264Z,77.82
2018-08-10T03:02:42.094Z,78.02
2018-08-10T03:35:12.834Z,72.66
2018-08-10T03:36:22.371Z,73.37
2018-08-10T03:37:32.440Z,74.05
2018-08-10T03:38:42.558Z,74.05
2018-08-10T03:39:52.684Z,74.79
2018-08-10T03:41:02.758Z,75.02
2018-08-10T03:42:12.825Z,75.98
2018-08-10T03:43:22.901Z,75.79
2018-08-10T03:44:32.708Z,76.37
2018-08-10T03:45:42.789Z,76.46
2018-08-10T03:46:52.916Z,76.99
2018-08-10T03:48:02.721Z,76.7
2018-08-10T03:49:12.525Z,77.09
2018-08-10T03:50:22.611Z,77.19
2018-08-10T03:51:32.685Z,77.32
2018-08-10T03:52:42.841Z,77.03
2018-08-10T03:53:52.903Z,76.93
2018-08-10T03:55:03.002Z,76.83
2018-08-10T03:56:13.072Z,76.87
2018-08-10T03:57:23.296Z,76.97
2018-08-10T03:58:32.855Z,77.16
2018-08-10T03:59:42.926Z,77.06
2018-08-10T04:00:52.993Z,76.97
2018-08-10T04:02:02.804Z,76.91
2018-08-10T04:03:12.890Z,76.97
2018-08-10T04:04:22.973Z,77.11
2018-08-10T04:05:33.075Z,77.2
2018-08-10T04:06:43.142Z,77.2
2018-08-10T04:07:53.223Z,77.11
2018-08-10T04:09:03.301Z,77.49
2018-08-10T04:10:13.373Z,77.11
2018-08-10T04:11:23.179Z,77.39
2018-08-10T04:12:33.023Z,77.24
2018-08-10T04:13:43.142Z,77.34
2018-08-10T04:14:53.232Z,77.14
2018-08-10T04:16:03.311Z,77.24
2018-08-10T04:17:13.394Z,77.34
2018-08-10T04:18:23.453Z,77.34
2018-08-10T04:19:33.280Z,77.14
2018-08-10T04:20:43.359Z,77.34
2018-08-10T04:21:53.437Z,76.75
2018-08-10T04:23:03.505Z,76.85
2018-08-10T04:24:13.602Z,76.95
2018-08-10T04:25:23.673Z,76.89
2018-08-10T04:26:33.487Z,76.98
2018-08-10T04:27:43.608Z,77.18
2018-08-10T04:28:53.421Z,76.69
2018-08-10T04:30:03.539Z,76.6
2018-08-10T04:31:13.609Z,76.79
2018-08-10T04:32:23.691Z,76.69
2018-08-10T04:33:33.770Z,76.92
2018-08-10T04:34:43.582Z,76.54
2018-08-10T04:35:53.389Z,76.44
2018-08-10T04:37:03.210Z,76.05
2018-08-10T04:38:13.293Z,76.18
2018-08-10T04:39:22.602Z,75.51
2018-08-10T04:40:32.417Z,75.6
2018-08-10T04:41:42.490Z,76.38
2018-08-10T04:42:52.304Z,76.12
2018-08-10T04:44:02.376Z,75.31
2018-08-10T04:45:12.468Z,75.54
2018-08-10T04:46:22.545Z,75.74
2018-08-10T04:47:32.627Z,76.22
2018-08-10T04:48:42.705Z,76.42
2018-08-10T04:49:52.794Z,75.25
2018-08-10T04:51:02.870Z,75.48
2018-08-10T04:52:12.970Z,74.84
2018-08-10T04:53:22.783Z,74.65
2018-08-10T04:54:32.337Z,73.06
2018-08-10T04:55:42.432Z,71.86
2018-08-10T04:56:52.504Z,71.06
2018-08-10T04:58:02.586Z,70.9
2018-08-10T04:59:12.694Z,70.48
2018-08-10T05:00:22.765Z,70.97
2018-08-10T05:01:32.831Z,70.51
2018-08-10T05:02:42.674Z,69.76
2018-08-10T05:03:52.715Z,70.19
2018-08-10T05:05:02.287Z,70.12
2018-08-10T05:06:12.376Z,70.12
2018-08-10T05:07:22.462Z,70.26
2018-08-10T05:08:32.588Z,70.26
2018-08-10T05:09:42.714Z,70.19
2018-08-10T05:10:52.696Z,70
2018-08-10T05:12:02.776Z,69.9
2018-08-10T05:13:12.858Z,70.88
2018-08-10T05:14:22.425Z,70.68
2018-08-10T05:15:32.519Z,71.53
2018-08-10T05:16:42.746Z,71.43
2018-08-10T05:17:52.566Z,71.47
2018-08-10T05:19:02.113Z,71.62
2018-08-10T05:20:11.674Z,71.33
2018-08-10T05:21:20.974Z,71.56
2018-08-10T05:22:31.070Z,70.98
2018-08-10T05:23:41.134Z,70.72
2018-08-10T05:24:51.197Z,70.36
2018-08-10T05:26:01.524Z,70.46
2018-08-10T05:27:11.685Z,71.53
2018-08-10T05:28:21.573Z,72.8
2018-08-10T05:29:31.676Z,74.01
2018-08-10T05:30:41.741Z,74.85
2018-08-10T05:31:51.811Z,74.97
2018-08-10T05:33:01.885Z,75.82
2018-08-10T05:34:11.959Z,75.82
2018-08-10T05:35:22.044Z,75.59
2018-08-10T05:36:32.115Z,75.54
2018-08-10T05:37:42.000Z,75.54
2018-08-10T05:38:52.083Z,75.6
2018-08-10T05:40:02.170Z,75.9
2018-08-10T05:41:12.240Z,75.8
2018-08-10T05:42:22.347Z,75.31
2018-08-10T05:43:32.422Z,75.31
2018-08-10T05:44:42.508Z,74.73
2018-08-10T05:45:52.603Z,74.93
2018-08-10T05:47:02.945Z,74.44
2018-08-10T05:48:13.041Z,74.67
2018-08-10T05:49:23.122Z,73.89
2018-08-10T05:50:33.213Z,73.63
2018-08-10T05:51:43.032Z,74.41
2018-08-10T05:52:52.864Z,74.77
2018-08-10T05:54:02.680Z,74.96
2018-08-10T05:55:12.763Z,74.34
2018-08-10T05:56:22.827Z,73.4
2018-08-10T05:57:33.124Z,74.32
2018-08-10T05:58:43.043Z,74.08
2018-08-10T05:59:52.853Z,74.96
2018-08-10T06:01:02.953Z,73.89
2018-08-10T06:02:13.027Z,72.78
2018-08-10T06:03:23.336Z,72.78
2018-08-10T06:04:33.769Z,73.37
2018-08-10T06:05:43.598Z,73.66
2018-08-10T06:06:53.679Z,73.76
2018-08-10T06:08:03.757Z,74.51
2018-08-10T06:09:13.324Z,74.22
2018-08-10T06:10:23.407Z,74.12
2018-08-10T06:11:33.326Z,74.32
2018-08-10T06:12:43.144Z,74.32
2018-08-10T06:13:53.214Z,74.41
2018-08-10T06:15:03.036Z,73.83
2018-08-10T06:16:13.119Z,73.86
2018-08-10T06:17:22.154Z,73.47
2018-08-10T06:18:32.230Z,72.72
2018-08-10T06:19:42.401Z,72.96
2018-08-10T06:20:52.436Z,73.19
2018-08-10T06:22:02.520Z,72.89
2018-08-10T06:23:12.604Z,72.99
2018-08-10T06:24:22.678Z,73.19
2018-08-10T06:25:32.748Z,72.99
2018-08-10T06:26:42.817Z,72.99
2018-08-10T06:27:52.879Z,73.03
2018-08-10T06:29:03.338Z,73.13
2018-08-10T06:30:13.415Z,73.13
2018-08-10T06:31:23.490Z,73.22
2018-08-10T06:32:33.544Z,73.03
2018-08-10T06:33:43.717Z,73.42
2018-08-10T06:34:53.382Z,73.97
2018-08-10T06:36:03.488Z,73.68
2018-08-10T06:37:13.569Z,73.97
2018-08-10T06:38:23.641Z,74.62
2018-08-10T06:39:33.721Z,74.38
2018-08-10T06:40:43.609Z,74.29
2018-08-10T06:41:53.739Z,74.77
2018-08-10T06:43:03.838Z,74.87
2018-08-10T06:44:13.924Z,74.58
2018-08-10T06:45:23.743Z,74.54
2018-08-10T06:46:33.840Z,74.35
2018-08-10T06:47:43.658Z,74.25
2018-08-10T06:48:53.741Z,74.25
2018-08-10T06:50:03.870Z,74.35
2018-08-10T06:51:14.309Z,74.51
2018-08-10T06:52:24.768Z,74.35
2018-08-10T06:53:34.872Z,74.22
2018-08-10T06:54:44.694Z,75.33
2018-08-10T06:55:55.090Z,74.61
2018-08-10T06:57:05.462Z,74.32
2018-08-10T06:58:15.556Z,74.54
2018-08-10T06:59:25.686Z,74.51
2018-08-10T07:00:35.739Z,74.64
2018-08-10T07:01:45.541Z,74.44
2018-08-10T07:02:55.370Z,74.84
2018-08-10T07:04:05.482Z,74.74
2018-08-10T07:05:15.569Z,74.74
2018-08-10T07:06:25.675Z,74.35
2018-08-10T07:07:35.994Z,74.58
2018-08-10T07:08:46.550Z,74.19
2018-08-10T07:09:56.118Z,73.9
2018-08-10T07:11:06.203Z,73.7
2018-08-10T07:12:16.282Z,74.13
2018-08-10T07:13:26.680Z,73.54
2018-08-10T07:14:36.772Z,73.93
2018-08-10T07:15:46.918Z,73.97
2018-08-10T07:16:57.009Z,73.87
2018-08-10T07:18:07.090Z,73.77
2018-08-10T07:19:17.167Z,73.87
2018-08-10T07:20:27.010Z,73.77
2018-08-10T07:21:37.098Z,73.68
2018-08-10T07:22:47.216Z,74.07
2018-08-10T07:23:57.290Z,73.48
2018-08-10T07:25:07.376Z,73.38
2018-08-10T07:26:17.212Z,73.52
2018-08-10T07:27:27.317Z,73.22
2018-08-10T07:28:37.137Z,73.68
2018-08-10T07:29:47.231Z,73.91
2018-08-10T07:30:56.846Z,73.13
2018-08-10T07:32:06.947Z,74.1
2018-08-10T07:33:17.110Z,73.81
2018-08-10T07:34:26.714Z,74.1
2018-08-10T07:35:36.805Z,73.91
2018-08-10T07:36:46.923Z,73.77
2018-08-10T07:37:57.026Z,74.55
2018-08-10T07:39:07.110Z,74.55
2018-08-10T07:40:17.209Z,73.97
2018-08-10T07:41:27.300Z,73.87
2018-08-10T07:42:37.130Z,73.87
2018-08-10T07:43:46.947Z,73.77
2018-08-10T07:44:57.035Z,73.97
2018-08-10T07:46:07.121Z,73.77
2018-08-10T07:47:16.945Z,73.32
2018-08-10T07:48:27.007Z,73.91
2018-08-10T07:49:37.124Z,74.1
2018-08-10T07:50:47.223Z,73.77
2018-08-10T07:51:57.061Z,73.91
2018-08-10T07:53:07.236Z,73.87
2018-08-10T07:54:17.315Z,73.87
2018-08-10T07:55:27.430Z,73.77
2018-08-10T07:56:37.256Z,73.87
2018-08-10T07:57:47.085Z,74.26
2018-08-10T07:58:57.249Z,74.26
2018-08-10T08:00:07.233Z,73.68
2018-08-10T08:01:17.467Z,74.26
2018-08-10T08:02:27.546Z,73.97
2018-08-10T08:03:37.619Z,74.16
2018-08-10T08:04:47.752Z,73.87
2018-08-10T08:05:57.335Z,74.26
2018-08-10T08:07:07.816Z,74.16
2018-08-10T08:08:18.012Z,74.16
2018-08-10T08:09:28.086Z,74.26
2018-08-10T08:10:38.480Z,73.81
2018-08-10T08:11:48.665Z,73.91
2018-08-10T08:12:58.757Z,73.91
2018-08-10T08:14:08.835Z,73.91
2018-08-10T08:15:18.660Z,74.2
2018-08-10T08:16:28.498Z,74.3
2018-08-10T08:17:38.588Z,74.3
2018-08-10T08:18:48.668Z,74.4
2018-08-10T08:19:58.946Z,74.3
2018-08-10T08:21:09.396Z,74.3
2018-08-10T08:22:19.487Z,74.2
2018-08-10T08:23:29.617Z,74.3
2018-08-10T08:24:39.448Z,74.1
2018-08-10T08:25:49.524Z,74.3
2018-08-10T08:26:59.361Z,74.3
2018-08-10T08:28:09.659Z,74.33
2018-08-10T08:29:19.800Z,73.85
2018-08-10T08:30:29.878Z,74.04
2018-08-10T08:31:39.987Z,73.85
2018-08-10T08:32:50.076Z,73.85
2018-08-10T08:34:00.146Z,73.94
2018-08-10T08:35:10.219Z,74.04
2018-08-10T08:36:20.537Z,73.94
2018-08-10T08:37:30.372Z,74.04
2018-08-10T08:38:40.226Z,73.85
2018-08-10T08:39:50.326Z,74.08
2018-08-10T08:41:00.335Z,73.98
2018-08-10T08:42:10.778Z,73.98
2018-08-10T08:43:20.612Z,74.08
2018-08-10T08:44:30.694Z,74.18
2018-08-10T08:45:40.948Z,73.98
2018-08-10T08:46:52.475Z,74.02
2018-08-10T08:48:02.612Z,74.11
2018-08-10T08:49:12.703Z,73.52
2018-08-10T08:50:22.811Z,74.21
2018-08-10T08:51:32.912Z,73.62
2018-08-10T08:52:42.996Z,73.56
2018-08-10T08:53:52.646Z,74.25
2018-08-10T08:55:02.976Z,73.66
2018-08-10T08:56:13.060Z,73.75
2018-08-10T08:57:23.314Z,73.66
2018-08-10T08:58:33.503Z,74.11
2018-08-10T08:59:43.590Z,73.82
2018-08-10T09:00:53.682Z,74.11
2018-08-10T09:02:03.522Z,74.02
2018-08-10T09:03:13.632Z,73.72
2018-08-10T09:04:23.754Z,73.56
2018-08-10T09:05:33.877Z,73.66
2018-08-10T09:06:43.985Z,73.85
2018-08-10T09:07:53.818Z,73.75
2018-08-10T09:09:03.923Z,73.96
2018-08-10T09:10:14.270Z,73.6
2018-08-10T09:11:23.486Z,73.3
2018-08-10T09:12:33.569Z,73.4
2018-08-10T09:13:43.401Z,73.5
2018-08-10T09:14:52.965Z,72.81
2018-08-10T09:16:03.065Z,73.4
2018-08-10T09:17:13.043Z,73.6
2018-08-10T09:19:06.103Z,73.89
2018-08-10T09:20:16.268Z,73.69
2018-08-10T09:21:26.306Z,73.69
2018-08-10T09:22:36.410Z,73.89
2018-08-10T09:23:46.234Z,73.4
2018-08-10T09:24:56.330Z,72.91
2018-08-10T09:26:06.175Z,73.4
2018-08-10T09:27:16.328Z,73.24
2018-08-10T09:28:26.425Z,72.85
2018-08-10T09:29:36.277Z,72.59
2018-08-10T09:30:46.358Z,72.98
2018-08-10T09:31:56.665Z,72.42
2018-08-10T09:33:06.999Z,72.33
2018-08-10T09:34:17.129Z,72.33
2018-08-10T09:35:27.136Z,72.07
2018-08-10T09:36:37.211Z,72.03
2018-08-10T09:37:47.321Z,72.17
2018-08-10T09:38:57.443Z,72.72
2018-08-10T09:40:07.520Z,72.96
2018-08-10T09:41:17.343Z,72.92
2018-08-10T09:42:27.461Z,73.41
2018-08-10T09:43:37.543Z,73.41
2018-08-10T09:44:47.644Z,73.31
2018-08-10T09:45:57.759Z,73.31
2018-08-10T09:47:07.697Z,73.41
2018-08-10T09:48:17.794Z,73.41
2018-08-10T09:49:27.888Z,73.61
2018-08-10T09:50:38.003Z,73.21
2018-08-10T09:51:48.162Z,73.41
2018-08-10T09:52:58.635Z,73.18
2018-08-10T09:54:08.477Z,73.38
2018-08-10T09:55:18.317Z,73.5
2018-08-10T09:56:28.160Z,72.92
2018-08-10T09:57:38.238Z,72.86
2018-08-10T09:58:48.129Z,72.36
2018-08-10T09:59:58.346Z,72.3
2018-08-10T10:01:08.445Z,72.1
2018-08-10T10:02:18.537Z,71.75
2018-08-10T10:03:28.348Z,71.84
2018-08-10T10:04:38.432Z,71.98
2018-08-10T10:05:48.506Z,71.88
2018-08-10T10:06:58.595Z,72.11
2018-08-10T10:08:08.707Z,72.01
2018-08-10T10:09:18.808Z,71.91
2018-08-10T10:10:28.658Z,72.01
2018-08-10T10:11:38.751Z,71.36
2018-08-10T10:12:48.837Z,71.06
2018-08-10T10:13:58.935Z,71.19
2018-08-10T10:15:09.038Z,70.83
2018-08-10T10:16:18.889Z,70.44
2018-08-10T10:17:29.070Z,70.87
2018-08-10T10:18:39.452Z,70.31
2018-08-10T10:19:49.286Z,70.01
2018-08-10T10:20:59.272Z,70.64
2018-08-10T10:22:09.857Z,70.44
2018-08-10T10:23:19.940Z,70.48
2018-08-10T10:24:29.778Z,71.53
2018-08-10T10:25:39.870Z,71.2
2018-08-10T10:26:49.954Z,71.86
2018-08-10T10:28:00.048Z,71.92
2018-08-10T10:29:10.142Z,72.11
2018-08-10T10:30:20.242Z,71.98
2018-08-10T10:31:30.342Z,72.28
2018-08-10T10:32:40.517Z,72.58
2018-08-10T10:33:51.016Z,72.67
2018-08-10T10:35:01.097Z,72.24
2018-08-10T10:36:11.192Z,71.98
2018-08-10T10:37:21.286Z,72.18
2018-08-10T10:38:31.465Z,72.22
2018-08-10T10:39:41.605Z,72.18
2018-08-10T10:40:51.686Z,71.78
2018-08-10T10:42:01.773Z,71.88
2018-08-10T10:43:11.856Z,71.72
2018-08-10T10:44:21.997Z,71.52
2018-08-10T10:45:32.094Z,71.82
2018-08-10T10:46:42.188Z,71.92
2018-08-10T10:47:52.306Z,72.28
2018-08-10T10:49:02.392Z,72.08
2018-08-10T10:50:12.485Z,71.69
2018-08-10T10:51:22.587Z,71.78
2018-08-10T10:52:32.686Z,71.69
2018-08-10T10:53:42.253Z,71.69
2018-08-10T10:54:52.336Z,71.75
2018-08-10T10:56:02.431Z,71.95
2018-08-10T10:57:12.562Z,72.28
2018-08-10T10:58:22.411Z,71.59
2018-08-10T10:59:32.490Z,71.78
2018-08-10T11:00:42.570Z,71.88
2018-08-10T11:01:52.406Z,71.88
2018-08-10T11:03:02.514Z,71.88
2018-08-10T11:04:12.630Z,71.78
2018-08-10T11:05:22.488Z,71.69
2018-08-10T11:06:32.566Z,71.69
2018-08-10T11:07:42.700Z,71.78
2018-08-10T11:08:52.843Z,71.88
2018-08-10T11:10:02.939Z,71.88
2018-08-10T11:11:13.042Z,71.69
2018-08-10T11:12:23.154Z,71.09
2018-08-10T11:13:33.253Z,71.13
2018-08-10T11:14:43.353Z,70.97
2018-08-10T11:15:53.428Z,70.31
2018-08-10T11:17:02.988Z,70.11
2018-08-10T11:18:13.292Z,70.21
2018-08-10T11:19:23.460Z,70.34
2018-08-10T11:20:33.550Z,70.64
2018-08-10T11:21:43.625Z,70.34
2018-08-10T11:22:53.708Z,70.64
2018-08-10T11:24:04.023Z,71
2018-08-10T11:25:14.798Z,71.1
2018-08-10T11:26:25.669Z,71.86
2018-08-10T11:27:35.487Z,72.02
2018-08-10T11:28:45.580Z,72.31
2018-08-10T11:29:55.431Z,72.08
2018-08-10T11:31:05.581Z,72.67
2018-08-10T11:32:15.676Z,72.28
2018-08-10T11:33:25.765Z,72.28
2018-08-10T11:34:35.863Z,72.58
2018-08-10T11:35:45.962Z,72.74
2018-08-10T11:36:56.061Z,72.44
2018-08-10T11:38:06.184Z,72.34
2018-08-10T11:39:16.002Z,71.85
2018-08-10T11:40:26.086Z,72.18
2018-08-10T11:41:36.324Z,71.98
2018-08-10T11:42:46.657Z,70.54
2018-08-10T11:43:56.744Z,70.04
2018-08-10T11:45:07.065Z,69.42
2018-08-10T11:46:17.163Z,69.46
2018-08-10T11:47:27.001Z,69.49
2018-08-10T11:48:37.134Z,69.53
2018-08-10T11:49:47.211Z,69.23
2018-08-10T11:50:57.345Z,69.62
2018-08-10T11:52:07.481Z,69.49
2018-08-10T11:53:17.555Z,69.42
2018-08-10T11:54:27.481Z,69.42
2018-08-10T11:55:37.599Z,69.26
2018-08-10T11:56:47.683Z,69.36
2018-08-10T11:57:57.781Z,69.26
2018-08-10T11:59:07.868Z,69.46
2018-08-10T12:00:17.985Z,70.05
2018-08-10T12:01:28.079Z,70.05
2018-08-10T12:02:38.177Z,70.31
2018-08-10T12:03:48.285Z,71.11
2018-08-10T12:04:58.385Z,70.57
2018-08-10T12:06:07.999Z,71.63
2018-08-10T12:07:18.430Z,71.53
2018-08-10T12:08:28.009Z,71.83
2018-08-10T12:09:38.095Z,71.63
2018-08-10T12:10:47.952Z,71.34
2018-08-10T12:11:58.039Z,71.4
2018-08-10T12:13:08.144Z,71.7
2018-08-10T12:14:18.244Z,71.6
2018-08-10T12:15:28.325Z,71.26
2018-08-10T12:16:38.159Z,71.2
2018-08-10T12:17:47.991Z,71.26
2018-08-10T12:18:58.141Z,71.6
2018-08-10T12:20:08.098Z,71.2
2018-08-10T12:21:17.939Z,71.6
2018-08-10T12:22:28.043Z,71.4
2018-08-10T12:23:38.161Z,71.66
2018-08-10T12:24:48.483Z,71.92
2018-08-10T12:25:58.840Z,72.02
2018-08-10T12:27:08.952Z,71.62
2018-08-10T12:28:18.795Z,71.33
2018-08-10T12:29:28.675Z,71.33
2018-08-10T12:30:38.464Z,71.47
2018-08-10T12:31:48.567Z,71.76
2018-08-10T12:32:58.673Z,70.41
2018-08-10T12:34:08.748Z,70.81
2018-08-10T12:35:18.647Z,70.64
2018-08-10T12:36:28.763Z,70.08
2018-08-10T12:37:38.891Z,70.68
2018-08-10T12:38:48.730Z,70.28
2018-08-10T12:39:58.837Z,70.57
2018-08-10T12:41:08.938Z,70.57
2018-08-10T12:42:19.030Z,70.48
2018-08-10T12:43:29.138Z,71.08
2018-08-10T12:44:39.246Z,70.48
2018-08-10T12:45:49.350Z,71.34
2018-08-10T12:46:59.478Z,71.53
2018-08-10T12:48:09.589Z,71.44
2018-08-10T12:49:19.166Z,71.5
2018-08-10T12:50:29.074Z,71.66
2018-08-10T12:51:39.287Z,71.76
2018-08-10T12:52:49.411Z,71.56
2018-08-10T12:53:58.979Z,71.86
2018-08-10T12:55:08.541Z,71.47
2018-08-10T12:56:18.634Z,71.86
2018-08-10T12:57:28.735Z,71.26
2018-08-10T12:58:38.832Z,71.2
2018-08-10T12:59:48.662Z,71.99
2018-08-10T13:00:58.769Z,72.06
2018-08-10T13:02:08.590Z,72.25
2018-08-10T13:03:18.854Z,72.16
2018-08-10T13:04:29.277Z,72.81
2018-08-10T13:05:39.111Z,73.37
2018-08-10T13:06:49.208Z,73.33
2018-08-10T13:07:59.308Z,73.6
2018-08-10T13:09:09.406Z,73.46
2018-08-10T13:10:19.250Z,73.86
2018-08-10T13:11:29.334Z,74.41
2018-08-10T13:12:39.152Z,73.98
2018-08-10T13:13:49.244Z,73.88
2018-08-10T13:14:59.341Z,73.49
2018-08-10T13:16:09.439Z,73.39
2018-08-10T13:17:19.570Z,73.59
2018-08-10T13:18:29.847Z,73.49
2018-08-10T13:19:40.268Z,73.29
2018-08-10T13:20:50.378Z,73.69
2018-08-10T13:22:00.021Z,73
2018-08-10T13:23:10.116Z,73
2018-08-10T13:24:19.966Z,73.33
2018-08-10T13:25:29.826Z,72.34
2018-08-10T13:26:39.919Z,72.74
2018-08-10T13:27:50.038Z,72.54
2018-08-10T13:29:00.153Z,72.47
2018-08-10T13:30:10.278Z,72.24
2018-08-10T13:31:20.090Z,72.44
2018-08-10T13:32:30.172Z,72.87
2018-08-10T13:33:40.243Z,72.74
2018-08-10T13:34:49.800Z,72.34
2018-08-10T13:35:59.896Z,72.34
2018-08-10T13:37:10.001Z,72.54
2018-08-10T13:38:20.083Z,72.64
2018-08-10T13:39:29.923Z,72.34
2018-08-10T13:40:40.013Z,72.44
2018-08-10T13:41:50.128Z,72.83
2018-08-10T13:43:00.237Z,72.34
2018-08-10T13:44:10.064Z,72.28
2018-08-10T13:45:20.246Z,71.78
2018-08-10T13:46:30.362Z,72.28
2018-08-10T13:47:40.476Z,71.88
2018-08-10T13:48:50.585Z,72.18
2018-08-10T13:50:00.416Z,71.78
2018-08-10T13:51:10.523Z,71.92
2018-08-10T13:52:20.353Z,71.78
2018-08-10T13:53:30.445Z,71.72
2018-08-10T13:54:40.535Z,71.23
2018-08-10T13:55:50.638Z,71.62
2018-08-10T13:57:00.805Z,71.06
2018-08-10T13:58:11.162Z,71.16
2018-08-10T13:59:21.252Z,71.36
2018-08-10T14:00:31.112Z,70.97
2018-08-10T14:01:41.207Z,71.36
2018-08-10T14:02:51.311Z,71.36
2018-08-10T14:04:01.140Z,71.39
2018-08-10T14:05:11.253Z,71.26
2018-08-10T14:06:21.603Z,71.39
2018-08-10T14:07:31.916Z,71.69
2018-08-10T14:08:42.072Z,71.39
2018-08-10T14:09:52.153Z,71.1
2018-08-10T14:11:01.969Z,71.1
2018-08-10T14:12:12.081Z,70.87
2018-08-10T14:13:22.185Z,71.75
2018-08-10T14:14:32.313Z,71.82
2018-08-10T14:15:42.214Z,72.22
2018-08-10T14:16:52.514Z,72.02
2018-08-10T14:18:02.639Z,72.22
2018-08-10T14:19:12.739Z,71.52
2018-08-10T14:20:22.883Z,70.93
2018-08-10T14:21:32.985Z,71.36
2018-08-10T14:22:43.095Z,70.9
2018-08-10T14:23:53.188Z,70.34
2018-08-10T14:25:03.010Z,70.67
2018-08-10T14:26:13.119Z,69.89
2018-08-10T14:27:22.964Z,69.98
2018-08-10T14:28:33.062Z,70.31
2018-08-10T14:29:42.893Z,70.31
2018-08-10T14:30:52.975Z,70.41
2018-08-10T14:32:03.068Z,71
2018-08-10T14:33:12.624Z,71.17
2018-08-10T14:34:22.505Z,71.37
2018-08-10T14:35:32.611Z,71.33
2018-08-10T14:36:42.697Z,71.92
2018-08-10T14:37:52.861Z,71.79
2018-08-10T14:39:02.957Z,72.28
2018-08-10T14:40:13.061Z,72.25
2018-08-10T14:41:23.325Z,72.15
2018-08-10T14:42:33.760Z,72.61
2018-08-10T14:43:43.848Z,72.51
2018-08-10T14:44:53.955Z,72.87
2018-08-10T14:46:04.058Z,73.13
2018-08-10T14:47:14.276Z,73.13
2018-08-10T14:48:24.677Z,73.1
2018-08-10T14:49:34.491Z,73.59
2018-08-10T14:50:44.577Z,73.29
2018-08-10T14:51:54.711Z,73.46
2018-08-10T14:53:04.823Z,73.16
2018-08-10T14:54:14.659Z,73.91
2018-08-10T14:55:24.735Z,74.07
2018-08-10T14:56:34.837Z,74.17
2018-08-10T14:57:44.914Z,74.23
2018-08-10T14:58:55.008Z,74.43
2018-08-10T15:00:05.107Z,74.33
2018-08-10T15:01:15.227Z,74.69
2018-08-10T15:02:25.352Z,74.46
2018-08-10T15:03:35.168Z,74.75
2018-08-10T15:04:45.268Z,74.95
2018-08-10T15:05:55.358Z,74.81
2018-08-10T15:07:05.522Z,74.81
2018-08-10T15:08:15.658Z,74.58
2018-08-10T15:09:25.504Z,74.58
2018-08-10T15:10:35.604Z,75.03
2018-08-10T15:11:45.444Z,75.03
2018-08-10T15:12:56.911Z,75.23
2018-08-10T15:14:06.922Z,75.09
2018-08-10T15:15:17.037Z,74.99
2018-08-10T15:16:26.896Z,75.09
2018-08-10T15:17:36.998Z,74.47
2018-08-10T15:18:46.815Z,74.73
2018-08-10T15:19:56.645Z,74.43
2018-08-10T15:21:06.726Z,74.3
2018-08-10T15:22:16.576Z,74.4
2018-08-10T15:23:26.683Z,74.4
2018-08-10T15:24:36.828Z,74.36
2018-08-10T15:25:46.643Z,74.46
2018-08-10T15:26:56.729Z,74.65
2018-08-10T15:28:06.810Z,74.81
2018-08-10T15:29:16.648Z,75.01
2018-08-10T15:30:26.733Z,74.87
2018-08-10T15:31:36.888Z,74.87
2018-08-10T15:32:46.987Z,74.93
2018-08-10T15:33:56.829Z,75.23
2018-08-10T15:35:06.926Z,75.04
2018-08-10T15:36:17.013Z,74.74
2018-08-10T15:37:27.085Z,74.9